Current Conditions
Clear
Conditions



Pressure
1020.92 (mb) - 30.15 (inHG)
Visibility

6.2 (mimiles) - 10.0 (km)
   Temperature
15  °C
59°F
3  °C
37°F
45  %
 Humidity
   Wind Speed
6  mph
5  kts
10  km/h
2.7  m/s
   Wind Direction
 120°
East South
East
   Airport Data
EGGD
Location Bristol International 15 mi (24.14 km)
Metar :EGGD 220820Z AUTO 12005KT 9999 NCD 15/03 Q1021
Wed 22nd May 09:20 am
   Raw Metar Info
Raw METAR is the most common format in the world for the transmission of observational weather data. It is highly standardized through the International Civil Aviation Organization (ICAO), which allows it to be understood throughout most of the world.
   API Info
Data Provided by
https://www.checkwx.com/weather/EGGD
   © Info
CSS/SVG/PHP scripts were developed by weather34.com for use in the weather34 template © 2015-2019

Guide Info provided by Metar-Wikipedia